createdAt,value
2019-02-08T00:01:36.334Z,2.30
2019-02-08T00:03:37.826Z,2.30
2019-02-08T00:05:39.274Z,2.30
2019-02-08T00:07:40.629Z,2.30
2019-02-08T00:09:42.037Z,2.30
2019-02-08T00:11:43.402Z,2.30
2019-02-08T00:13:44.743Z,2.30
2019-02-08T00:15:46.179Z,2.30
2019-02-08T00:17:48.355Z,2.30
2019-02-08T00:19:49.899Z,2.40
2019-02-08T00:21:51.290Z,2.30
2019-02-08T00:23:52.647Z,2.40
2019-02-08T00:25:54.011Z,2.30
2019-02-08T00:27:55.539Z,2.30
2019-02-08T00:29:56.918Z,2.40
2019-02-08T00:31:58.357Z,2.30
2019-02-08T00:33:59.963Z,2.30
2019-02-08T00:36:01.311Z,2.30
2019-02-08T00:38:03.669Z,2.40
2019-02-08T00:40:10.785Z,2.40
2019-02-08T00:42:12.195Z,2.40
2019-02-08T00:44:13.549Z,2.30
2019-02-08T00:46:14.960Z,2.30
2019-02-08T00:48:16.891Z,2.30
2019-02-08T00:50:24.618Z,2.30
2019-02-08T00:52:26.018Z,2.30
2019-02-08T00:54:27.377Z,2.30
2019-02-08T00:56:28.771Z,2.20
2019-02-08T00:58:30.436Z,2.20
2019-02-08T01:00:31.904Z,2.20
2019-02-08T01:02:33.258Z,2.20
2019-02-08T01:04:34.663Z,2.20
2019-02-08T01:06:36.022Z,2.30
2019-02-08T01:08:37.376Z,2.30
2019-02-08T01:10:38.954Z,2.30
2019-02-08T01:12:40.507Z,2.30
2019-02-08T01:14:41.954Z,2.30
2019-02-08T01:16:43.354Z,2.30
2019-02-08T01:18:44.719Z,2.30
2019-02-08T01:20:46.077Z,2.30
2019-02-08T01:22:47.772Z,2.30
2019-02-08T01:24:49.124Z,2.30
2019-02-08T01:26:50.482Z,2.30
2019-02-08T01:28:51.874Z,2.30
2019-02-08T01:30:53.383Z,2.30
2019-02-08T01:32:54.835Z,2.30
2019-02-08T01:34:56.188Z,2.30
2019-02-08T01:36:57.601Z,2.30
2019-02-08T01:38:58.996Z,2.30
2019-02-08T01:41:00.445Z,2.30
2019-02-08T01:43:02.135Z,2.30
2019-02-08T01:45:08.639Z,2.30
2019-02-08T01:47:10.001Z,2.20
2019-02-08T01:49:11.616Z,2.20
2019-02-08T01:51:13.069Z,2.10
2019-02-08T01:53:14.421Z,2.10
2019-02-08T01:55:16.498Z,2.10
2019-02-08T01:57:17.887Z,2.10
2019-02-08T01:59:19.246Z,2.10
2019-02-08T02:01:20.603Z,2.10
2019-02-08T02:03:22.105Z,2.10
2019-02-08T02:05:23.657Z,2.10
2019-02-08T02:07:25.049Z,2.10
2019-02-08T02:09:26.462Z,2.10
2019-02-08T02:11:27.809Z,2.10
2019-02-08T02:13:29.371Z,2.10
2019-02-08T02:15:31.064Z,2.20
2019-02-08T02:17:32.419Z,2.10
2019-02-08T02:19:33.775Z,2.20
2019-02-08T02:21:35.169Z,2.20
2019-02-08T02:23:36.620Z,2.20
2019-02-08T02:25:38.075Z,2.30
2019-02-08T02:27:39.476Z,2.30
2019-02-08T02:29:40.899Z,2.20
2019-02-08T02:31:42.312Z,2.30
2019-02-08T02:33:43.654Z,2.30
2019-02-08T02:35:45.068Z,2.30
2019-02-08T02:37:46.521Z,2.30
2019-02-08T02:39:47.876Z,2.30
2019-02-08T02:41:49.423Z,2.30
2019-02-08T02:43:50.784Z,2.40
2019-02-08T02:45:52.143Z,2.30
2019-02-08T02:47:54.054Z,2.30
2019-02-08T02:49:55.465Z,2.30
2019-02-08T02:51:56.819Z,2.30
2019-02-08T02:54:04.774Z,2.30
2019-02-08T02:56:01.590Z,2.30
2019-02-08T02:58:04.365Z,2.30
2019-02-08T03:00:11.470Z,2.30
2019-02-08T03:02:12.833Z,2.30
2019-02-08T03:04:14.191Z,2.30
2019-02-08T03:06:15.614Z,2.30
2019-02-08T03:08:17.165Z,2.30
2019-02-08T03:10:21.522Z,2.30
2019-02-08T03:12:22.925Z,2.20
2019-02-08T03:14:24.286Z,2.30
2019-02-08T03:16:25.688Z,2.20
2019-02-08T03:18:27.047Z,2.30
2019-02-08T03:20:28.395Z,2.30
2019-02-08T03:22:29.797Z,2.30
2019-02-08T03:24:31.153Z,2.40
2019-02-08T03:26:32.573Z,2.50
2019-02-08T03:28:33.930Z,2.50
2019-02-08T03:30:42.636Z,2.50
2019-02-08T03:32:44.019Z,2.50
2019-02-08T03:34:45.381Z,2.60
2019-02-08T03:36:46.735Z,2.60
2019-02-08T03:38:48.165Z,2.60
2019-02-08T03:40:49.638Z,2.60
2019-02-08T03:42:51.313Z,2.60
2019-02-08T03:44:52.720Z,2.70
2019-02-08T03:46:54.073Z,2.70
2019-02-08T03:48:55.430Z,2.70
2019-02-08T03:50:57.012Z,2.70
2019-02-08T03:52:58.360Z,2.70
2019-02-08T03:54:59.808Z,2.70
2019-02-08T03:57:01.209Z,2.70
2019-02-08T03:59:03.382Z,2.70
2019-02-08T04:01:05.124Z,2.70
2019-02-08T04:03:06.490Z,2.70
2019-02-08T04:05:07.890Z,2.70
2019-02-08T04:07:09.250Z,2.70
2019-02-08T04:09:10.864Z,2.70
2019-02-08T04:11:12.326Z,2.70
2019-02-08T04:13:13.771Z,2.70
2019-02-08T04:15:18.186Z,2.70
2019-02-08T04:17:19.559Z,2.70
2019-02-08T04:19:20.917Z,2.70
2019-02-08T04:21:22.319Z,2.70
2019-02-08T04:23:23.679Z,2.60
2019-02-08T04:25:25.179Z,2.50
2019-02-08T04:27:26.585Z,2.40
2019-02-08T04:29:28.012Z,2.50
2019-02-08T04:31:29.390Z,2.40
2019-02-08T04:33:30.863Z,2.40
2019-02-08T04:35:32.262Z,2.40
2019-02-08T04:37:33.618Z,2.40
2019-02-08T04:39:34.987Z,2.50
2019-02-08T04:41:36.406Z,2.50
2019-02-08T04:43:37.776Z,2.50
2019-02-08T04:45:39.173Z,2.40
2019-02-08T04:47:40.529Z,2.40
2019-02-08T04:49:41.875Z,2.40
2019-02-08T04:51:43.830Z,2.40
2019-02-08T04:53:45.191Z,2.30
2019-02-08T04:55:46.546Z,2.20
2019-02-08T04:57:47.974Z,2.30
2019-02-08T04:59:49.349Z,2.20
2019-02-08T05:01:50.703Z,2.10
2019-02-08T05:03:52.082Z,2.10
2019-02-08T05:05:53.442Z,2.10
2019-02-08T05:07:54.840Z,2.10
2019-02-08T05:09:56.329Z,2.00
2019-02-08T05:11:57.694Z,2.00
2019-02-08T05:13:59.302Z,1.90
2019-02-08T05:16:00.645Z,1.90
2019-02-08T05:18:02.303Z,1.90
2019-02-08T05:20:12.548Z,1.80
2019-02-08T05:22:13.892Z,1.80
2019-02-08T05:24:15.499Z,1.80
2019-02-08T05:26:16.856Z,1.70
2019-02-08T05:28:18.229Z,1.70
2019-02-08T05:30:34.518Z,1.70
2019-02-08T05:32:36.172Z,1.70
2019-02-08T05:34:37.548Z,1.70
2019-02-08T05:36:39.115Z,1.70
2019-02-08T05:38:40.490Z,1.70
2019-02-08T05:40:41.973Z,1.70
2019-02-08T05:42:43.372Z,1.70
2019-02-08T05:44:44.829Z,1.70
2019-02-08T05:46:46.232Z,1.70
2019-02-08T05:48:47.602Z,1.70
2019-02-08T05:50:48.990Z,1.70
2019-02-08T05:52:50.915Z,1.80
2019-02-08T05:54:54.403Z,1.80
2019-02-08T05:56:55.643Z,1.90
2019-02-08T05:58:57.030Z,1.80
2019-02-08T06:00:58.485Z,1.90
2019-02-08T06:03:00.366Z,1.90
2019-02-08T06:05:01.821Z,1.90
2019-02-08T06:07:03.391Z,1.80
2019-02-08T06:09:07.884Z,1.80
2019-02-08T06:11:09.262Z,1.80
2019-02-08T06:13:10.732Z,1.70
2019-02-08T06:15:20.172Z,1.80
2019-02-08T06:17:21.546Z,1.80
2019-02-08T06:19:23.112Z,1.80
2019-02-08T06:21:24.474Z,1.80
2019-02-08T06:23:25.836Z,1.90
2019-02-08T06:25:27.263Z,1.90
2019-02-08T06:27:28.639Z,1.90
2019-02-08T06:29:29.983Z,2.00
2019-02-08T06:31:31.373Z,2.00
2019-02-08T06:33:32.743Z,2.00
2019-02-08T06:35:34.919Z,2.00
2019-02-08T06:37:43.988Z,2.00
2019-02-08T06:39:39.567Z,2.00
2019-02-08T06:41:40.974Z,1.90
2019-02-08T06:43:42.328Z,2.00
2019-02-08T06:45:43.697Z,1.90
2019-02-08T06:47:45.322Z,2.00
2019-02-08T06:49:46.699Z,2.10
2019-02-08T06:51:48.066Z,2.10
2019-02-08T06:53:49.465Z,2.20
2019-02-08T06:55:53.848Z,2.20
2019-02-08T06:57:59.200Z,2.10
2019-02-08T07:00:02.466Z,2.10
2019-02-08T07:02:20.865Z,2.10
2019-02-08T07:04:24.367Z,2.10
2019-02-08T07:06:36.701Z,2.10
2019-02-08T07:08:56.454Z,2.20
2019-02-08T07:11:16.294Z,2.20
2019-02-08T07:13:19.590Z,2.20
2019-02-08T07:15:22.863Z,2.30
2019-02-08T07:17:26.135Z,2.30
2019-02-08T07:19:29.440Z,2.40
2019-02-08T07:21:32.756Z,2.40
2019-02-08T07:23:45.191Z,2.50
2019-02-08T07:26:00.355Z,2.50
2019-02-08T07:28:12.702Z,2.60
2019-02-08T07:30:32.867Z,2.60
2019-02-08T07:32:36.149Z,2.70
2019-02-08T07:34:45.131Z,2.80
2019-02-08T07:36:55.343Z,2.80
2019-02-08T07:39:15.477Z,2.80
2019-02-08T07:41:19.536Z,2.90
2019-02-08T07:43:40.033Z,2.90
2019-02-08T07:45:56.317Z,2.90
2019-02-08T07:47:59.791Z,2.90
2019-02-08T07:50:03.153Z,2.90
2019-02-08T07:52:06.661Z,3.00
2019-02-08T07:54:27.165Z,3.10
2019-02-08T07:56:30.485Z,3.10
2019-02-08T07:58:48.791Z,3.10
2019-02-08T08:00:52.664Z,3.10
2019-02-08T08:02:56.036Z,3.20
2019-02-08T08:04:59.325Z,3.20
2019-02-08T08:07:11.766Z,3.30
2019-02-08T08:09:31.589Z,3.30
2019-02-08T08:11:35.035Z,3.40
2019-02-08T08:13:40.938Z,3.40
2019-02-08T08:15:44.326Z,3.50
2019-02-08T08:18:02.527Z,3.50
2019-02-08T08:20:31.071Z,3.60
2019-02-08T08:22:43.343Z,3.60
2019-02-08T08:24:49.022Z,3.70
2019-02-08T08:26:58.787Z,3.70
2019-02-08T08:29:02.090Z,3.80
2019-02-08T08:31:21.026Z,3.90
2019-02-08T08:33:34.183Z,3.90
2019-02-08T08:36:13.757Z,4.00
2019-02-08T08:38:35.756Z,4.10
2019-02-08T08:40:58.199Z,4.10
2019-02-08T08:43:15.164Z,4.20
2019-02-08T08:45:49.428Z,4.30
2019-02-08T08:48:14.690Z,4.30
2019-02-08T08:50:52.165Z,4.40
2019-02-08T08:53:14.734Z,4.50
2019-02-08T08:55:57.073Z,4.70
2019-02-08T08:58:22.302Z,4.80
2019-02-08T09:00:59.187Z,4.90
2019-02-08T09:03:40.276Z,5.00
2019-02-08T09:06:26.958Z,5.10
2019-02-08T09:08:50.929Z,5.20
2019-02-08T09:11:24.887Z,5.30
2019-02-08T09:13:50.393Z,5.40
2019-02-08T09:16:25.452Z,5.50
2019-02-08T09:18:56.743Z,5.50
2019-02-08T09:21:23.967Z,5.60
2019-02-08T09:23:51.539Z,5.70
2019-02-08T09:26:07.586Z,5.70
2019-02-08T09:28:44.777Z,5.80
2019-02-08T09:31:09.908Z,5.90
2019-02-08T09:33:22.763Z,6.00
2019-02-08T09:36:07.483Z,6.00
2019-02-08T09:38:49.139Z,6.10
2019-02-08T09:41:17.398Z,6.10
2019-02-08T09:44:00.701Z,6.20
2019-02-08T09:46:42.643Z,6.20
2019-02-08T09:49:06.280Z,6.20
2019-02-08T09:51:47.127Z,6.30
2019-02-08T09:54:30.438Z,6.40
2019-02-08T09:56:50.914Z,6.50
2019-02-08T09:59:37.296Z,6.60
2019-02-08T10:02:13.496Z,6.70
2019-02-08T10:04:23.476Z,6.80
2019-02-08T10:07:22.776Z,6.80
2019-02-08T10:09:50.667Z,6.80
2019-02-08T10:12:12.524Z,6.90
2019-02-08T10:14:40.736Z,7.00
2019-02-08T10:17:26.063Z,7.00
2019-02-08T10:20:01.857Z,7.20
2019-02-08T10:22:37.820Z,7.30
2019-02-08T10:25:13.490Z,7.30
2019-02-08T10:27:29.746Z,7.50
2019-02-08T10:29:39.385Z,7.50
2019-02-08T10:32:10.319Z,7.50
2019-02-08T10:34:33.976Z,7.60
2019-02-08T10:37:25.370Z,7.50
2019-02-08T10:39:47.897Z,7.50
2019-02-08T10:42:26.655Z,7.20
2019-02-08T10:44:39.818Z,7.20
2019-02-08T10:47:06.548Z,7.30
2019-02-08T10:49:51.320Z,7.30
2019-02-08T10:52:21.548Z,7.30
2019-02-08T10:55:10.956Z,7.30
2019-02-08T10:57:20.784Z,7.30
2019-02-08T10:59:49.056Z,7.40
2019-02-08T11:02:22.792Z,7.40
2019-02-08T11:04:59.069Z,7.40
2019-02-08T11:07:27.747Z,7.70
2019-02-08T11:10:17.638Z,7.80
2019-02-08T11:12:49.174Z,7.80
2019-02-08T11:15:25.122Z,7.80
2019-02-08T11:17:58.183Z,8.00
2019-02-08T11:19:59.982Z,8.00
2019-02-08T11:22:01.865Z,7.80
2019-02-08T11:24:03.969Z,7.80
2019-02-08T11:26:06.744Z,8.00
2019-02-08T11:28:08.624Z,8.10
2019-02-08T11:30:16.137Z,8.20
2019-02-08T11:32:17.802Z,8.20
2019-02-08T11:34:19.525Z,8.20
2019-02-08T11:36:23.112Z,8.20
2019-02-08T11:38:24.994Z,8.20
2019-02-08T11:40:27.356Z,8.10
2019-02-08T11:42:29.157Z,8.20
2019-02-08T11:44:30.835Z,8.30
2019-02-08T11:46:32.738Z,8.40
2019-02-08T11:48:34.609Z,8.50
2019-02-08T11:50:36.496Z,8.60
2019-02-08T11:52:38.355Z,8.70
2019-02-08T11:54:40.028Z,8.80
2019-02-08T11:56:42.101Z,8.60
2019-02-08T11:58:43.836Z,8.50
2019-02-08T12:00:47.550Z,8.40
2019-02-08T12:02:49.335Z,8.40
2019-02-08T12:04:51.116Z,8.40
2019-02-08T12:06:52.767Z,8.40
2019-02-08T12:08:54.529Z,8.40
2019-02-08T12:10:56.783Z,8.50
2019-02-08T12:12:58.153Z,8.50
2019-02-08T12:14:59.552Z,8.50
2019-02-08T12:17:01.044Z,8.50
2019-02-08T12:19:02.703Z,8.50
2019-02-08T12:21:04.154Z,8.50
2019-02-08T12:23:05.562Z,8.50
2019-02-08T12:25:11.230Z,8.40
2019-02-08T12:27:12.640Z,8.50
2019-02-08T12:29:14.308Z,8.50
2019-02-08T12:31:15.653Z,8.40
2019-02-08T12:33:17.061Z,8.40
2019-02-08T12:35:18.451Z,8.40
2019-02-08T12:37:19.909Z,8.50
2019-02-08T12:39:21.267Z,8.50
2019-02-08T12:41:22.619Z,8.50
2019-02-08T12:43:24.131Z,8.50
2019-02-08T12:45:25.607Z,8.60
2019-02-08T12:47:27.014Z,8.60
2019-02-08T12:49:28.376Z,8.60
2019-02-08T12:51:29.797Z,8.60
2019-02-08T12:53:31.152Z,8.60
2019-02-08T12:55:32.496Z,8.50
2019-02-08T12:57:33.915Z,8.60
2019-02-08T12:59:35.267Z,8.60
2019-02-08T13:01:37.976Z,8.50
2019-02-08T13:03:39.544Z,8.50
2019-02-08T13:05:40.979Z,8.50
2019-02-08T13:07:42.318Z,8.50
2019-02-08T13:09:43.690Z,8.50
2019-02-08T13:11:45.368Z,8.50
2019-02-08T13:13:46.741Z,8.40
2019-02-08T13:15:48.174Z,8.40
2019-02-08T13:17:49.691Z,8.40
2019-02-08T13:19:51.045Z,8.40
2019-02-08T13:21:52.399Z,8.50
2019-02-08T13:23:53.819Z,8.40
2019-02-08T13:25:55.221Z,8.40
2019-02-08T13:27:56.576Z,8.30
2019-02-08T13:29:57.924Z,8.30
2019-02-08T13:31:59.344Z,8.30
2019-02-08T13:34:00.678Z,8.30
2019-02-08T13:36:07.756Z,8.30
2019-02-08T13:38:09.192Z,8.30
2019-02-08T13:40:15.166Z,8.30
2019-02-08T13:42:16.493Z,8.30
2019-02-08T13:44:17.937Z,8.30
2019-02-08T13:46:19.314Z,8.30
2019-02-08T13:48:20.673Z,8.30
2019-02-08T13:50:33.372Z,8.20
2019-02-08T13:52:34.884Z,8.30
2019-02-08T13:54:36.446Z,8.30
2019-02-08T13:56:37.811Z,8.30
2019-02-08T13:58:39.246Z,8.30
2019-02-08T14:00:40.602Z,8.30
2019-02-08T14:02:42.711Z,8.40
2019-02-08T14:04:44.276Z,8.40
2019-02-08T14:06:45.694Z,8.50
2019-02-08T14:08:47.060Z,8.60
2019-02-08T14:10:48.410Z,8.60
2019-02-08T14:12:50.605Z,8.70
2019-02-08T14:14:51.957Z,8.80
2019-02-08T14:16:53.386Z,8.80
2019-02-08T14:18:54.810Z,8.80
2019-02-08T14:20:56.186Z,8.70
2019-02-08T14:22:57.742Z,8.70
2019-02-08T14:24:59.483Z,8.70
2019-02-08T14:27:08.183Z,8.80
2019-02-08T14:29:04.100Z,8.80
2019-02-08T14:31:05.824Z,8.70
2019-02-08T14:33:07.387Z,8.80
2019-02-08T14:35:11.843Z,8.90
2019-02-08T14:37:13.276Z,8.90
2019-02-08T14:39:14.696Z,8.90
2019-02-08T14:41:16.044Z,8.90
2019-02-08T14:43:17.449Z,8.80
2019-02-08T14:45:18.903Z,8.80
2019-02-08T14:47:20.329Z,8.80
2019-02-08T14:49:21.744Z,8.70
2019-02-08T14:51:23.227Z,8.70
2019-02-08T14:53:24.595Z,8.60
2019-02-08T14:55:26.736Z,8.50
2019-02-08T14:57:28.152Z,8.40
2019-02-08T14:59:29.530Z,8.40
2019-02-08T15:01:30.942Z,8.30
2019-02-08T15:03:32.498Z,8.30
2019-02-08T15:05:33.874Z,8.20
2019-02-08T15:07:35.246Z,8.20
2019-02-08T15:09:36.653Z,8.20
2019-02-08T15:11:38.068Z,8.10
2019-02-08T15:13:39.463Z,8.10
2019-02-08T15:15:40.783Z,8.10
2019-02-08T15:17:42.523Z,8.00
2019-02-08T15:19:43.897Z,8.00
2019-02-08T15:21:45.254Z,8.00
2019-02-08T15:23:47.310Z,7.90
2019-02-08T15:25:48.687Z,7.90
2019-02-08T15:27:50.042Z,7.90
2019-02-08T15:29:51.454Z,7.90
2019-02-08T15:31:52.813Z,7.90
2019-02-08T15:33:54.211Z,7.80
2019-02-08T15:35:55.578Z,7.90
2019-02-08T15:37:57.143Z,7.80
2019-02-08T15:39:58.508Z,7.80
2019-02-08T15:41:59.972Z,7.80
2019-02-08T15:44:01.781Z,7.70
2019-02-08T15:46:03.247Z,7.70
2019-02-08T15:48:04.790Z,7.60
2019-02-08T15:50:08.255Z,7.50
2019-02-08T15:52:09.652Z,7.40
2019-02-08T15:54:11.055Z,7.30
2019-02-08T15:56:12.724Z,7.20
2019-02-08T15:58:14.181Z,7.20
2019-02-08T16:00:28.370Z,7.10
2019-02-08T16:02:29.796Z,7.10
2019-02-08T16:04:31.153Z,7.10
2019-02-08T16:06:32.626Z,7.00
2019-02-08T16:08:33.927Z,6.90
2019-02-08T16:10:35.483Z,6.90
2019-02-08T16:12:36.905Z,6.90
2019-02-08T16:14:38.259Z,6.80
2019-02-08T16:16:39.786Z,6.80
2019-02-08T16:18:41.150Z,6.80
2019-02-08T16:20:42.555Z,6.80
2019-02-08T16:22:43.917Z,6.80
2019-02-08T16:24:45.282Z,6.80
2019-02-08T16:26:46.699Z,6.90
2019-02-08T16:28:48.057Z,6.90
2019-02-08T16:30:49.422Z,6.80
2019-02-08T16:32:50.822Z,6.80
2019-02-08T16:34:52.233Z,6.80
2019-02-08T16:36:53.556Z,6.70
2019-02-08T16:38:54.979Z,6.60
2019-02-08T16:40:56.349Z,6.60
2019-02-08T16:42:57.919Z,6.60
2019-02-08T16:44:59.407Z,6.60
2019-02-08T16:47:01.212Z,6.60
2019-02-08T16:49:03.292Z,6.60
2019-02-08T16:51:05.205Z,6.60
2019-02-08T16:53:08.066Z,6.70
2019-02-08T16:55:11.012Z,6.70
2019-02-08T16:57:12.382Z,6.70
2019-02-08T16:59:13.747Z,6.60
2019-02-08T17:01:15.166Z,6.50
2019-02-08T17:03:16.633Z,6.60
2019-02-08T17:05:21.898Z,6.50
2019-02-08T17:07:23.306Z,6.50
2019-02-08T17:09:24.664Z,6.50
2019-02-08T17:11:26.035Z,6.50
2019-02-08T17:13:27.454Z,6.40
2019-02-08T17:15:33.538Z,6.30
2019-02-08T17:17:34.973Z,6.30
2019-02-08T17:19:36.361Z,6.20
2019-02-08T17:21:37.719Z,6.10
2019-02-08T17:23:39.090Z,6.10
2019-02-08T17:25:40.716Z,6.10
2019-02-08T17:27:42.225Z,6.00
2019-02-08T17:29:43.592Z,6.00
2019-02-08T17:31:45.006Z,6.00
2019-02-08T17:33:46.363Z,6.00
2019-02-08T17:35:47.716Z,6.00
2019-02-08T17:37:49.339Z,6.00
2019-02-08T17:39:50.690Z,6.00
2019-02-08T17:41:52.053Z,6.00
2019-02-08T17:43:53.467Z,6.00
2019-02-08T17:45:54.882Z,6.00
2019-02-08T17:47:58.901Z,6.00
2019-02-08T17:50:00.270Z,5.90
2019-02-08T17:52:01.667Z,5.90
2019-02-08T17:54:03.210Z,5.90
2019-02-08T17:56:04.568Z,5.90
2019-02-08T17:58:06.079Z,5.80
2019-02-08T18:00:28.414Z,5.80
2019-02-08T18:02:29.815Z,5.70
2019-02-08T18:04:31.181Z,5.70
2019-02-08T18:06:32.604Z,5.70
2019-02-08T18:08:33.970Z,5.70
2019-02-08T18:10:35.439Z,5.60
2019-02-08T18:12:36.854Z,5.70
2019-02-08T18:14:38.272Z,5.60
2019-02-08T18:16:39.648Z,5.60
2019-02-08T18:18:41.062Z,5.60
2019-02-08T18:20:47.231Z,5.60
2019-02-08T18:22:48.609Z,5.60
2019-02-08T18:24:50.011Z,5.60
2019-02-08T18:26:51.371Z,5.60
2019-02-08T18:28:52.724Z,5.50
2019-02-08T18:30:54.135Z,5.50
2019-02-08T18:32:55.609Z,5.50
2019-02-08T18:34:56.966Z,5.60
2019-02-08T18:36:58.749Z,5.60
2019-02-08T18:39:00.195Z,5.60
2019-02-08T18:41:01.556Z,5.60
2019-02-08T18:43:04.535Z,5.60
2019-02-08T18:45:13.637Z,5.70
2019-02-08T18:47:15.015Z,5.60
2019-02-08T18:49:16.542Z,5.70
2019-02-08T18:51:17.925Z,5.70
2019-02-08T18:53:19.307Z,5.70
2019-02-08T18:55:20.718Z,5.70
2019-02-08T18:57:22.119Z,5.70
2019-02-08T18:59:23.454Z,5.70
2019-02-08T19:01:24.856Z,5.80
2019-02-08T19:03:26.212Z,5.80
2019-02-08T19:05:27.815Z,5.80
2019-02-08T19:07:29.177Z,5.80
2019-02-08T19:09:30.545Z,5.80
2019-02-08T19:11:31.959Z,5.80
2019-02-08T19:13:33.745Z,5.80
2019-02-08T19:15:35.454Z,5.70
2019-02-08T19:17:36.833Z,5.70
2019-02-08T19:19:38.515Z,5.80
2019-02-08T19:21:39.882Z,5.80
2019-02-08T19:23:41.238Z,5.80
2019-02-08T19:25:44.453Z,5.70
2019-02-08T19:27:45.804Z,5.70
2019-02-08T19:29:47.170Z,5.80
2019-02-08T19:31:48.587Z,5.80
2019-02-08T19:33:49.959Z,5.90
2019-02-08T19:35:51.318Z,5.80
2019-02-08T19:37:52.833Z,5.90
2019-02-08T19:39:54.818Z,5.90
2019-02-08T19:41:57.070Z,5.90
2019-02-08T19:43:58.431Z,5.90
2019-02-08T19:45:59.928Z,5.90
2019-02-08T19:48:01.719Z,5.90
2019-02-08T19:50:08.826Z,5.90
2019-02-08T19:52:10.308Z,5.90
2019-02-08T19:54:11.669Z,5.90
2019-02-08T19:56:14.079Z,5.80
2019-02-08T19:58:15.524Z,5.80
2019-02-08T20:00:24.837Z,5.80
2019-02-08T20:02:26.216Z,5.80
2019-02-08T20:04:29.023Z,5.80
2019-02-08T20:06:30.408Z,5.70
2019-02-08T20:08:31.795Z,5.70
2019-02-08T20:10:42.936Z,5.70
2019-02-08T20:12:44.270Z,5.70
2019-02-08T20:14:46.062Z,5.60
2019-02-08T20:16:47.406Z,5.60
2019-02-08T20:18:48.856Z,5.60
2019-02-08T20:20:50.201Z,5.60
2019-02-08T20:22:51.632Z,5.60
2019-02-08T20:24:53.065Z,5.60
2019-02-08T20:26:54.447Z,5.60
2019-02-08T20:28:55.830Z,5.60
2019-02-08T20:30:57.320Z,5.60
2019-02-08T20:32:59.609Z,5.60
2019-02-08T20:35:00.969Z,5.60
2019-02-08T20:37:02.489Z,5.60
2019-02-08T20:39:06.095Z,5.60
2019-02-08T20:41:07.439Z,5.60
2019-02-08T20:43:10.309Z,5.60
2019-02-08T20:45:26.723Z,5.60
2019-02-08T20:47:28.153Z,5.50
2019-02-08T20:49:29.531Z,5.50
2019-02-08T20:51:30.951Z,5.50
2019-02-08T20:53:32.405Z,5.40
2019-02-08T20:55:34.522Z,5.40
2019-02-08T20:57:36.572Z,5.40
2019-02-08T20:59:38.893Z,5.40
2019-02-08T21:01:40.401Z,5.40
2019-02-08T21:03:41.836Z,5.40
2019-02-08T21:05:45.658Z,5.40
2019-02-08T21:07:47.162Z,5.40
2019-02-08T21:09:48.767Z,5.40
2019-02-08T21:11:50.170Z,5.40
2019-02-08T21:13:51.595Z,5.40
2019-02-08T21:15:52.989Z,5.40
2019-02-08T21:17:54.391Z,5.40
2019-02-08T21:19:55.771Z,5.40
2019-02-08T21:21:57.301Z,5.30
2019-02-08T21:23:58.735Z,5.30
2019-02-08T21:26:00.173Z,5.30
2019-02-08T21:28:01.561Z,5.20
2019-02-08T21:30:08.534Z,5.30
2019-02-08T21:32:09.949Z,5.30
2019-02-08T21:34:11.338Z,5.20
2019-02-08T21:36:12.709Z,5.20
2019-02-08T21:38:14.232Z,5.20
2019-02-08T21:40:26.210Z,5.20
2019-02-08T21:42:27.581Z,5.20
2019-02-08T21:44:29.377Z,5.10
2019-02-08T21:46:30.727Z,5.10
2019-02-08T21:48:32.077Z,5.10
2019-02-08T21:50:33.505Z,5.20
2019-02-08T21:52:35.142Z,5.10
2019-02-08T21:54:36.521Z,5.10
2019-02-08T21:56:38.324Z,5.10
2019-02-08T21:58:39.706Z,5.20
2019-02-08T22:00:42.455Z,5.10
2019-02-08T22:02:43.969Z,5.10
2019-02-08T22:04:45.328Z,5.10
2019-02-08T22:06:46.822Z,5.10
2019-02-08T22:08:48.378Z,5.10
2019-02-08T22:10:49.832Z,5.00
2019-02-08T22:12:51.172Z,5.00
2019-02-08T22:14:52.604Z,5.00
2019-02-08T22:16:53.942Z,5.00
2019-02-08T22:18:55.291Z,5.00
2019-02-08T22:20:57.432Z,5.00
2019-02-08T22:22:58.768Z,5.00
2019-02-08T22:25:00.249Z,5.00
2019-02-08T22:27:01.677Z,5.00
2019-02-08T22:29:03.044Z,4.90
2019-02-08T22:31:04.487Z,5.00
2019-02-08T22:33:08.517Z,4.90
2019-02-08T22:35:13.176Z,5.00
2019-02-08T22:37:14.632Z,5.00
2019-02-08T22:39:16.050Z,5.00
2019-02-08T22:41:17.429Z,5.10
2019-02-08T22:43:18.787Z,5.10
2019-02-08T22:45:33.308Z,5.10
2019-02-08T22:47:35.015Z,5.10
2019-02-08T22:49:36.411Z,5.00
2019-02-08T22:51:37.731Z,5.00
2019-02-08T22:53:39.152Z,5.10
2019-02-08T22:55:40.491Z,5.00
2019-02-08T22:57:41.843Z,5.00
2019-02-08T22:59:43.260Z,5.00
2019-02-08T23:01:46.727Z,5.00
2019-02-08T23:03:48.096Z,5.10
2019-02-08T23:05:49.458Z,5.10
2019-02-08T23:07:50.823Z,5.00
2019-02-08T23:09:52.252Z,5.00
2019-02-08T23:11:53.663Z,5.00
2019-02-08T23:13:55.137Z,5.00
2019-02-08T23:15:56.463Z,4.90
2019-02-08T23:17:57.906Z,5.00
2019-02-08T23:19:59.298Z,5.00
2019-02-08T23:22:00.656Z,5.00
2019-02-08T23:24:02.093Z,5.00
2019-02-08T23:26:04.237Z,5.00
2019-02-08T23:28:05.801Z,5.00
2019-02-08T23:30:16.777Z,4.90
2019-02-08T23:32:18.134Z,4.90
2019-02-08T23:34:19.537Z,4.90
2019-02-08T23:36:21.199Z,4.90
2019-02-08T23:38:22.556Z,4.80
2019-02-08T23:40:23.917Z,4.80
2019-02-08T23:42:25.309Z,4.80
2019-02-08T23:44:26.672Z,4.80
2019-02-08T23:46:28.066Z,4.80
2019-02-08T23:48:29.473Z,4.90
2019-02-08T23:50:30.845Z,4.90
2019-02-08T23:52:32.319Z,4.90
2019-02-08T23:54:33.924Z,4.90
2019-02-08T23:56:35.272Z,4.90
2019-02-08T23:58:36.708Z,4.90
